Iroquois Falls, Canada
Current Conditions -  °F | °C
As of 8:00 PM on Thursday 27 Nov 2014 (Local Time) from CYTS Reporting Station
Light Snow Light Snow  
Wind Chill: -12°   Ceiling: 4000
Heat Index:   Visibility: 3mi
Dew Point: -6°   Wind: 6mph
Humidity: 78%   Direction: 330°NNW
Pressure: 30.2"   Gusts: NA
Location:  48.77°N, 80.67°W
Report Text: CYTS 280100Z 33005KT 3SM -SN FEW020 BKN040 OVC060 M18/M21 A3020 RMK SC2SC4SC2 SLP258
Loading
Personal Weather Stations






























Interactive Weather Map New forecast layout! Learn more

10-Day Weather Forecast

Advertisements
Track Severe Weather on mobile